sensor_id;sensor_type;location;lat;lon;timestamp;temperature;humidity
8261;DHT22;64115;50.170;8.242;2023-02-04T00:02:07;5.20;99.90
8261;DHT22;64115;50.170;8.242;2023-02-04T00:04:34;5.20;99.90
8261;DHT22;64115;50.170;8.242;2023-02-04T00:07:02;5.20;99.90
8261;DHT22;64115;50.170;8.242;2023-02-04T00:09:29;5.10;99.90
8261;DHT22;64115;50.170;8.242;2023-02-04T00:11:56;5.10;99.90
8261;DHT22;64115;50.170;8.242;2023-02-04T00:14:23;5.10;99.90
8261;DHT22;64115;50.170;8.242;2023-02-04T00:16:50;5.10;99.90
8261;DHT22;64115;50.170;8.242;2023-02-04T00:19:17;5.10;99.90
8261;DHT22;64115;50.170;8.242;2023-02-04T00:21:44;5.10;99.90
8261;DHT22;64115;50.170;8.242;2023-02-04T00:24:13;5.10;99.90
8261;DHT22;64115;50.170;8.242;2023-02-04T00:26:40;5.10;99.90
8261;DHT22;64115;50.170;8.242;2023-02-04T00:29:07;5.10;99.90
8261;DHT22;64115;50.170;8.242;2023-02-04T00:31:34;5.00;99.90
8261;DHT22;64115;50.170;8.242;2023-02-04T00:34:01;5.10;99.90
8261;DHT22;64115;50.170;8.242;2023-02-04T00:36:28;5.00;99.90
8261;DHT22;64115;50.170;8.242;2023-02-04T00:38:55;5.00;99.90
8261;DHT22;64115;50.170;8.242;2023-02-04T00:41:23;5.10;99.90
8261;DHT22;64115;50.170;8.242;2023-02-04T00:43:50;5.00;99.90
8261;DHT22;64115;50.170;8.242;2023-02-04T00:46:17;5.00;99.90
8261;DHT22;64115;50.170;8.242;2023-02-04T00:48:44;5.10;99.90
8261;DHT22;64115;50.170;8.242;2023-02-04T00:51:11;5.00;99.90
8261;DHT22;64115;50.170;8.242;2023-02-04T00:53:38;5.00;99.90
8261;DHT22;64115;50.170;8.242;2023-02-04T00:56:05;5.00;99.90
8261;DHT22;64115;50.170;8.242;2023-02-04T00:58:33;5.00;99.90
8261;DHT22;64115;50.170;8.242;2023-02-04T01:01:01;5.00;99.90
8261;DHT22;64115;50.170;8.242;2023-02-04T01:03:28;5.00;99.90
8261;DHT22;64115;50.170;8.242;2023-02-04T01:05:55;5.00;99.90
8261;DHT22;64115;50.170;8.242;2023-02-04T01:08:22;5.00;99.90
8261;DHT22;64115;50.170;8.242;2023-02-04T01:10:48;5.10;99.90
8261;DHT22;64115;50.170;8.242;2023-02-04T01:13:15;5.10;99.90
8261;DHT22;64115;50.170;8.242;2023-02-04T01:15:44;5.00;99.90
8261;DHT22;64115;50.170;8.242;2023-02-04T01:18:11;5.00;99.90
8261;DHT22;64115;50.170;8.242;2023-02-04T01:20:38;5.00;99.90
8261;DHT22;64115;50.170;8.242;2023-02-04T01:23:05;4.90;99.90
8261;DHT22;64115;50.170;8.242;2023-02-04T01:25:33;5.00;99.90
8261;DHT22;64115;50.170;8.242;2023-02-04T01:28:00;5.00;99.90
8261;DHT22;64115;50.170;8.242;2023-02-04T01:30:27;4.90;99.90
8261;DHT22;64115;50.170;8.242;2023-02-04T01:32:56;4.90;99.90
8261;DHT22;64115;50.170;8.242;2023-02-04T01:35:23;4.90;99.90
8261;DHT22;64115;50.170;8.242;2023-02-04T01:37:50;4.90;99.90
8261;DHT22;64115;50.170;8.242;2023-02-04T01:40:17;4.90;99.90
8261;DHT22;64115;50.170;8.242;2023-02-04T01:42:44;4.90;99.90
8261;DHT22;64115;50.170;8.242;2023-02-04T01:45:12;4.80;99.90
8261;DHT22;64115;50.170;8.242;2023-02-04T01:47:39;4.80;99.90
8261;DHT22;64115;50.170;8.242;2023-02-04T01:50:09;4.80;99.90
8261;DHT22;64115;50.170;8.242;2023-02-04T01:52:38;4.80;99.90
8261;DHT22;64115;50.170;8.242;2023-02-04T01:55:12;4.80;99.90
8261;DHT22;64115;50.170;8.242;2023-02-04T01:57:40;4.70;99.90
8261;DHT22;64115;50.170;8.242;2023-02-04T02:00:13;4.70;99.90
8261;DHT22;64115;50.170;8.242;2023-02-04T02:02:43;4.70;99.90
8261;DHT22;64115;50.170;8.242;2023-02-04T02:05:15;4.70;99.90
8261;DHT22;64115;50.170;8.242;2023-02-04T02:07:42;4.70;99.90
8261;DHT22;64115;50.170;8.242;2023-02-04T02:10:11;4.70;99.90
8261;DHT22;64115;50.170;8.242;2023-02-04T02:12:39;4.60;99.90
8261;DHT22;64115;50.170;8.242;2023-02-04T02:15:08;4.60;99.90
8261;DHT22;64115;50.170;8.242;2023-02-04T02:17:35;4.70;99.90
8261;DHT22;64115;50.170;8.242;2023-02-04T02:20:05;4.60;99.90
8261;DHT22;64115;50.170;8.242;2023-02-04T02:22:38;4.60;99.90
8261;DHT22;64115;50.170;8.242;2023-02-04T02:25:12;4.60;99.90
8261;DHT22;64115;50.170;8.242;2023-02-04T02:27:40;4.50;99.90
8261;DHT22;64115;50.170;8.242;2023-02-04T02:30:09;4.50;99.90
8261;DHT22;64115;50.170;8.242;2023-02-04T02:32:37;4.50;99.90
8261;DHT22;64115;50.170;8.242;2023-02-04T02:35:05;4.50;99.90
8261;DHT22;64115;50.170;8.242;2023-02-04T02:37:33;4.50;99.90
8261;DHT22;64115;50.170;8.242;2023-02-04T02:40:00;4.50;99.90
8261;DHT22;64115;50.170;8.242;2023-02-04T02:42:29;4.50;99.90
8261;DHT22;64115;50.170;8.242;2023-02-04T02:44:57;4.50;99.90
8261;DHT22;64115;50.170;8.242;2023-02-04T02:47:24;4.50;99.90
8261;DHT22;64115;50.170;8.242;2023-02-04T02:49:53;4.50;99.90
8261;DHT22;64115;50.170;8.242;2023-02-04T02:52:20;4.50;99.90
8261;DHT22;64115;50.170;8.242;2023-02-04T02:54:47;4.50;99.90
8261;DHT22;64115;50.170;8.242;2023-02-04T02:57:16;4.50;99.90
8261;DHT22;64115;50.170;8.242;2023-02-04T02:59:46;4.50;99.90
8261;DHT22;64115;50.170;8.242;2023-02-04T03:02:16;4.50;99.90
8261;DHT22;64115;50.170;8.242;2023-02-04T03:04:47;4.50;99.90
8261;DHT22;64115;50.170;8.242;2023-02-04T03:07:15;4.50;99.90
8261;DHT22;64115;50.170;8.242;2023-02-04T03:09:52;4.40;99.90
8261;DHT22;64115;50.170;8.242;2023-02-04T03:12:19;4.40;99.90
8261;DHT22;64115;50.170;8.242;2023-02-04T03:14:46;4.30;99.90
8261;DHT22;64115;50.170;8.242;2023-02-04T03:17:13;4.30;99.90
8261;DHT22;64115;50.170;8.242;2023-02-04T03:19:41;4.30;99.90
8261;DHT22;64115;50.170;8.242;2023-02-04T03:22:08;4.30;99.90
8261;DHT22;64115;50.170;8.242;2023-02-04T03:24:36;4.30;99.90
8261;DHT22;64115;50.170;8.242;2023-02-04T03:27:04;4.20;99.90
8261;DHT22;64115;50.170;8.242;2023-02-04T03:29:31;4.20;99.90
8261;DHT22;64115;50.170;8.242;2023-02-04T03:31:58;4.20;99.90
8261;DHT22;64115;50.170;8.242;2023-02-04T03:34:25;4.20;99.90
8261;DHT22;64115;50.170;8.242;2023-02-04T03:36:52;4.20;99.90
8261;DHT22;64115;50.170;8.242;2023-02-04T03:39:20;4.20;99.90
8261;DHT22;64115;50.170;8.242;2023-02-04T03:41:47;4.30;99.90
8261;DHT22;64115;50.170;8.242;2023-02-04T03:44:15;4.20;99.90
8261;DHT22;64115;50.170;8.242;2023-02-04T03:46:43;4.20;99.90
8261;DHT22;64115;50.170;8.242;2023-02-04T03:49:10;4.20;99.90
8261;DHT22;64115;50.170;8.242;2023-02-04T03:51:36;4.20;99.90
8261;DHT22;64115;50.170;8.242;2023-02-04T03:54:03;4.20;99.90
8261;DHT22;64115;50.170;8.242;2023-02-04T03:56:30;4.20;99.90
8261;DHT22;64115;50.170;8.242;2023-02-04T03:58:58;4.30;99.90
8261;DHT22;64115;50.170;8.242;2023-02-04T04:01:26;4.30;99.90
8261;DHT22;64115;50.170;8.242;2023-02-04T04:03:53;4.30;99.90
8261;DHT22;64115;50.170;8.242;2023-02-04T04:06:20;4.20;99.90
8261;DHT22;64115;50.170;8.242;2023-02-04T04:08:47;4.20;99.90
8261;DHT22;64115;50.170;8.242;2023-02-04T04:11:14;4.30;99.90
8261;DHT22;64115;50.170;8.242;2023-02-04T04:13:41;4.30;99.90
8261;DHT22;64115;50.170;8.242;2023-02-04T04:16:08;4.30;99.90
8261;DHT22;64115;50.170;8.242;2023-02-04T04:18:36;4.20;99.90
8261;DHT22;64115;50.170;8.242;2023-02-04T04:21:03;4.20;99.90
8261;DHT22;64115;50.170;8.242;2023-02-04T04:23:30;4.20;99.90
8261;DHT22;64115;50.170;8.242;2023-02-04T04:25:57;4.20;99.90
8261;DHT22;64115;50.170;8.242;2023-02-04T04:28:24;4.10;99.90
8261;DHT22;64115;50.170;8.242;2023-02-04T04:30:51;4.10;99.90
8261;DHT22;64115;50.170;8.242;2023-02-04T04:33:18;4.10;99.90
8261;DHT22;64115;50.170;8.242;2023-02-04T04:35:47;4.00;99.90
8261;DHT22;64115;50.170;8.242;2023-02-04T04:38:13;4.00;99.90
8261;DHT22;64115;50.170;8.242;2023-02-04T04:40:40;4.00;99.90
8261;DHT22;64115;50.170;8.242;2023-02-04T04:43:07;4.00;99.90
8261;DHT22;64115;50.170;8.242;2023-02-04T04:45:34;4.00;99.90
8261;DHT22;64115;50.170;8.242;2023-02-04T04:48:01;3.90;99.90
8261;DHT22;64115;50.170;8.242;2023-02-04T04:50:28;3.90;99.90
8261;DHT22;64115;50.170;8.242;2023-02-04T04:52:57;3.90;99.90
8261;DHT22;64115;50.170;8.242;2023-02-04T04:55:24;3.80;99.90
8261;DHT22;64115;50.170;8.242;2023-02-04T04:57:51;3.80;99.90
8261;DHT22;64115;50.170;8.242;2023-02-04T05:00:20;3.80;99.90
8261;DHT22;64115;50.170;8.242;2023-02-04T05:02:47;3.80;99.90
8261;DHT22;64115;50.170;8.242;2023-02-04T05:05:14;3.80;99.90
8261;DHT22;64115;50.170;8.242;2023-02-04T05:07:41;3.80;99.90
8261;DHT22;64115;50.170;8.242;2023-02-04T05:10:10;3.80;99.90
8261;DHT22;64115;50.170;8.242;2023-02-04T05:12:37;3.80;99.90
8261;DHT22;64115;50.170;8.242;2023-02-04T05:15:04;3.70;99.90
8261;DHT22;64115;50.170;8.242;2023-02-04T05:17:31;3.70;99.90
8261;DHT22;64115;50.170;8.242;2023-02-04T05:19:59;3.60;99.90
8261;DHT22;64115;50.170;8.242;2023-02-04T05:22:26;3.60;99.90
8261;DHT22;64115;50.170;8.242;2023-02-04T05:24:53;3.60;99.90
8261;DHT22;64115;50.170;8.242;2023-02-04T05:27:21;3.60;99.90
8261;DHT22;64115;50.170;8.242;2023-02-04T05:29:48;3.60;99.90
8261;DHT22;64115;50.170;8.242;2023-02-04T05:32:15;3.60;99.90
8261;DHT22;64115;50.170;8.242;2023-02-04T05:34:42;3.50;99.90
8261;DHT22;64115;50.170;8.242;2023-02-04T05:37:09;3.60;99.90
8261;DHT22;64115;50.170;8.242;2023-02-04T05:39:36;3.50;99.90
8261;DHT22;64115;50.170;8.242;2023-02-04T05:42:03;3.50;99.90
8261;DHT22;64115;50.170;8.242;2023-02-04T05:44:31;3.50;99.90
8261;DHT22;64115;50.170;8.242;2023-02-04T05:46:58;3.50;99.90
8261;DHT22;64115;50.170;8.242;2023-02-04T05:49:25;3.60;99.90
8261;DHT22;64115;50.170;8.242;2023-02-04T05:51:52;3.60;99.90
8261;DHT22;64115;50.170;8.242;2023-02-04T05:54:19;3.60;99.90
8261;DHT22;64115;50.170;8.242;2023-02-04T05:56:46;3.70;99.90
8261;DHT22;64115;50.170;8.242;2023-02-04T05:59:14;3.80;99.90
8261;DHT22;64115;50.170;8.242;2023-02-04T06:01:42;3.80;99.90
8261;DHT22;64115;50.170;8.242;2023-02-04T06:04:09;3.80;99.90
8261;DHT22;64115;50.170;8.242;2023-02-04T06:06:36;3.80;99.90
8261;DHT22;64115;50.170;8.242;2023-02-04T06:09:03;3.80;99.90
8261;DHT22;64115;50.170;8.242;2023-02-04T06:11:30;3.80;99.90
8261;DHT22;64115;50.170;8.242;2023-02-04T06:13:57;3.80;99.90
8261;DHT22;64115;50.170;8.242;2023-02-04T06:16:25;3.80;99.90
8261;DHT22;64115;50.170;8.242;2023-02-04T06:18:53;3.80;99.90
8261;DHT22;64115;50.170;8.242;2023-02-04T06:21:20;3.90;99.90
8261;DHT22;64115;50.170;8.242;2023-02-04T06:23:47;3.80;99.90
8261;DHT22;64115;50.170;8.242;2023-02-04T06:26:14;3.80;99.90
8261;DHT22;64115;50.170;8.242;2023-02-04T06:28:41;3.80;99.90
8261;DHT22;64115;50.170;8.242;2023-02-04T06:31:08;3.80;99.90
8261;DHT22;64115;50.170;8.242;2023-02-04T06:33:35;3.90;99.90
8261;DHT22;64115;50.170;8.242;2023-02-04T06:36:04;3.90;99.90
8261;DHT22;64115;50.170;8.242;2023-02-04T06:38:31;3.90;99.90
8261;DHT22;64115;50.170;8.242;2023-02-04T06:40:58;3.80;99.90
8261;DHT22;64115;50.170;8.242;2023-02-04T06:43:25;3.90;99.90
8261;DHT22;64115;50.170;8.242;2023-02-04T06:45:52;3.90;99.90
8261;DHT22;64115;50.170;8.242;2023-02-04T06:48:19;3.80;99.90
8261;DHT22;64115;50.170;8.242;2023-02-04T06:50:46;3.90;99.90
8261;DHT22;64115;50.170;8.242;2023-02-04T06:53:14;3.90;99.90
8261;DHT22;64115;50.170;8.242;2023-02-04T06:55:42;3.90;99.90
8261;DHT22;64115;50.170;8.242;2023-02-04T06:58:09;3.90;99.90
8261;DHT22;64115;50.170;8.242;2023-02-04T07:00:36;3.90;99.90
8261;DHT22;64115;50.170;8.242;2023-02-04T07:03:03;3.90;99.90
8261;DHT22;64115;50.170;8.242;2023-02-04T07:05:32;3.90;99.90
8261;DHT22;64115;50.170;8.242;2023-02-04T07:07:59;3.90;99.90
8261;DHT22;64115;50.170;8.242;2023-02-04T07:10:27;4.00;99.90
8261;DHT22;64115;50.170;8.242;2023-02-04T07:12:54;3.90;99.90
8261;DHT22;64115;50.170;8.242;2023-02-04T07:15:21;3.90;99.90
8261;DHT22;64115;50.170;8.242;2023-02-04T07:17:48;3.90;99.90
8261;DHT22;64115;50.170;8.242;2023-02-04T07:20:16;3.90;99.90
8261;DHT22;64115;50.170;8.242;2023-02-04T07:22:43;3.90;99.90
8261;DHT22;64115;50.170;8.242;2023-02-04T07:25:10;4.00;99.90
8261;DHT22;64115;50.170;8.242;2023-02-04T07:27:41;3.90;99.90
8261;DHT22;64115;50.170;8.242;2023-02-04T07:30:09;4.00;99.90
8261;DHT22;64115;50.170;8.242;2023-02-04T07:32:36;4.00;99.90
8261;DHT22;64115;50.170;8.242;2023-02-04T07:35:03;4.00;99.90
8261;DHT22;64115;50.170;8.242;2023-02-04T07:37:31;4.00;99.90
8261;DHT22;64115;50.170;8.242;2023-02-04T07:39:57;4.10;99.90
8261;DHT22;64115;50.170;8.242;2023-02-04T07:42:24;4.10;99.90
8261;DHT22;64115;50.170;8.242;2023-02-04T07:44:54;4.10;99.90
8261;DHT22;64115;50.170;8.242;2023-02-04T07:47:21;4.20;99.90
8261;DHT22;64115;50.170;8.242;2023-02-04T07:49:49;4.30;99.90
8261;DHT22;64115;50.170;8.242;2023-02-04T07:52:16;4.40;99.90
8261;DHT22;64115;50.170;8.242;2023-02-04T07:54:43;4.40;99.90
8261;DHT22;64115;50.170;8.242;2023-02-04T07:57:10;4.50;99.90
8261;DHT22;64115;50.170;8.242;2023-02-04T07:59:37;4.60;99.90
8261;DHT22;64115;50.170;8.242;2023-02-04T08:02:06;4.60;99.90
8261;DHT22;64115;50.170;8.242;2023-02-04T08:04:33;4.70;99.90
8261;DHT22;64115;50.170;8.242;2023-02-04T08:07:00;4.70;99.90
8261;DHT22;64115;50.170;8.242;2023-02-04T08:09:28;4.80;99.90
8261;DHT22;64115;50.170;8.242;2023-02-04T08:11:54;4.90;99.90
8261;DHT22;64115;50.170;8.242;2023-02-04T08:14:22;4.90;99.90
8261;DHT22;64115;50.170;8.242;2023-02-04T08:16:48;5.00;99.90
8261;DHT22;64115;50.170;8.242;2023-02-04T08:19:17;5.00;99.90
8261;DHT22;64115;50.170;8.242;2023-02-04T08:21:46;5.00;99.90
8261;DHT22;64115;50.170;8.242;2023-02-04T08:24:14;5.00;99.90
8261;DHT22;64115;50.170;8.242;2023-02-04T08:26:42;5.00;99.90
8261;DHT22;64115;50.170;8.242;2023-02-04T08:29:09;5.00;99.90
8261;DHT22;64115;50.170;8.242;2023-02-04T08:31:36;5.00;99.90
8261;DHT22;64115;50.170;8.242;2023-02-04T08:34:04;5.10;99.90
8261;DHT22;64115;50.170;8.242;2023-02-04T08:36:34;5.10;99.90
8261;DHT22;64115;50.170;8.242;2023-02-04T08:39:02;5.20;99.90
8261;DHT22;64115;50.170;8.242;2023-02-04T08:41:29;5.20;99.90
8261;DHT22;64115;50.170;8.242;2023-02-04T08:43:58;5.20;99.90
8261;DHT22;64115;50.170;8.242;2023-02-04T08:46:26;5.20;99.90
8261;DHT22;64115;50.170;8.242;2023-02-04T08:48:53;5.10;99.90
8261;DHT22;64115;50.170;8.242;2023-02-04T08:51:20;5.10;99.90
8261;DHT22;64115;50.170;8.242;2023-02-04T08:53:50;5.20;99.90
8261;DHT22;64115;50.170;8.242;2023-02-04T08:56:17;5.20;99.90
8261;DHT22;64115;50.170;8.242;2023-02-04T08:58:46;5.30;99.90
8261;DHT22;64115;50.170;8.242;2023-02-04T09:01:14;5.30;99.90
8261;DHT22;64115;50.170;8.242;2023-02-04T09:03:41;5.30;99.90
8261;DHT22;64115;50.170;8.242;2023-02-04T09:06:10;5.30;99.90
8261;DHT22;64115;50.170;8.242;2023-02-04T09:08:37;5.30;99.90
8261;DHT22;64115;50.170;8.242;2023-02-04T09:11:06;5.20;99.90
8261;DHT22;64115;50.170;8.242;2023-02-04T09:13:35;5.10;99.90
8261;DHT22;64115;50.170;8.242;2023-02-04T09:16:04;5.10;99.90
8261;DHT22;64115;50.170;8.242;2023-02-04T09:18:31;5.00;99.90
8261;DHT22;64115;50.170;8.242;2023-02-04T09:20:58;5.00;99.90
8261;DHT22;64115;50.170;8.242;2023-02-04T09:23:25;5.10;99.90
8261;DHT22;64115;50.170;8.242;2023-02-04T09:25:53;5.20;99.90
8261;DHT22;64115;50.170;8.242;2023-02-04T09:28:21;5.10;99.90
8261;DHT22;64115;50.170;8.242;2023-02-04T09:30:49;5.10;99.90
8261;DHT22;64115;50.170;8.242;2023-02-04T09:33:16;5.00;99.90
8261;DHT22;64115;50.170;8.242;2023-02-04T09:35:43;5.00;99.90
8261;DHT22;64115;50.170;8.242;2023-02-04T09:38:10;5.10;99.90
8261;DHT22;64115;50.170;8.242;2023-02-04T09:40:41;5.20;99.90
8261;DHT22;64115;50.170;8.242;2023-02-04T09:43:14;5.40;99.90
8261;DHT22;64115;50.170;8.242;2023-02-04T09:45:44;5.40;99.90
8261;DHT22;64115;50.170;8.242;2023-02-04T09:48:12;5.40;99.90
8261;DHT22;64115;50.170;8.242;2023-02-04T09:50:40;5.50;99.90
8261;DHT22;64115;50.170;8.242;2023-02-04T09:53:14;5.60;99.90
8261;DHT22;64115;50.170;8.242;2023-02-04T09:55:44;5.50;99.90
8261;DHT22;64115;50.170;8.242;2023-02-04T09:58:14;5.50;99.90
8261;DHT22;64115;50.170;8.242;2023-02-04T10:00:45;5.50;99.90
8261;DHT22;64115;50.170;8.242;2023-02-04T10:03:15;5.60;99.90
8261;DHT22;64115;50.170;8.242;2023-02-04T10:05:43;5.70;99.90
8261;DHT22;64115;50.170;8.242;2023-02-04T10:08:13;5.90;99.90
8261;DHT22;64115;50.170;8.242;2023-02-04T10:10:42;6.00;99.90
8261;DHT22;64115;50.170;8.242;2023-02-04T10:13:15;6.00;99.90
8261;DHT22;64115;50.170;8.242;2023-02-04T10:15:45;6.00;99.90
8261;DHT22;64115;50.170;8.242;2023-02-04T10:18:18;6.00;99.90
8261;DHT22;64115;50.170;8.242;2023-02-04T10:20:49;6.00;99.90
8261;DHT22;64115;50.170;8.242;2023-02-04T10:23:16;5.90;99.90
8261;DHT22;64115;50.170;8.242;2023-02-04T10:25:46;5.80;99.90
8261;DHT22;64115;50.170;8.242;2023-02-04T10:28:13;5.70;99.90
8261;DHT22;64115;50.170;8.242;2023-02-04T10:30:42;5.50;99.90
8261;DHT22;64115;50.170;8.242;2023-02-04T10:33:14;5.30;99.90
8261;DHT22;64115;50.170;8.242;2023-02-04T10:35:46;5.20;99.90
8261;DHT22;64115;50.170;8.242;2023-02-04T10:38:13;5.00;99.90
8261;DHT22;64115;50.170;8.242;2023-02-04T10:40:40;4.90;99.90
8261;DHT22;64115;50.170;8.242;2023-02-04T10:43:09;4.90;99.90
8261;DHT22;64115;50.170;8.242;2023-02-04T10:45:53;5.00;99.90
8261;DHT22;64115;50.170;8.242;2023-02-04T10:48:24;5.10;99.90
8261;DHT22;64115;50.170;8.242;2023-02-04T10:50:51;5.10;99.90
8261;DHT22;64115;50.170;8.242;2023-02-04T10:53:20;5.00;99.90
8261;DHT22;64115;50.170;8.242;2023-02-04T10:56:11;5.10;99.90
8261;DHT22;64115;50.170;8.242;2023-02-04T10:58:41;5.10;99.90
8261;DHT22;64115;50.170;8.242;2023-02-04T11:01:09;5.20;99.90
8261;DHT22;64115;50.170;8.242;2023-02-04T11:03:39;5.30;99.90
8261;DHT22;64115;50.170;8.242;2023-02-04T11:06:10;5.40;99.90
8261;DHT22;64115;50.170;8.242;2023-02-04T11:08:39;5.50;99.90
8261;DHT22;64115;50.170;8.242;2023-02-04T11:11:08;5.50;99.90
8261;DHT22;64115;50.170;8.242;2023-02-04T11:13:40;5.60;99.90
8261;DHT22;64115;50.170;8.242;2023-02-04T11:16:11;5.70;99.90
8261;DHT22;64115;50.170;8.242;2023-02-04T11:18:48;5.70;99.90
8261;DHT22;64115;50.170;8.242;2023-02-04T11:21:25;5.80;99.90
8261;DHT22;64115;50.170;8.242;2023-02-04T11:24:23;5.90;99.90
8261;DHT22;64115;50.170;8.242;2023-02-04T11:26:51;6.20;99.90
8261;DHT22;64115;50.170;8.242;2023-02-04T11:29:28;6.60;99.90
8261;DHT22;64115;50.170;8.242;2023-02-04T11:32:02;6.70;99.90
8261;DHT22;64115;50.170;8.242;2023-02-04T11:34:44;6.80;99.90
8261;DHT22;64115;50.170;8.242;2023-02-04T11:37:17;6.80;99.90
8261;DHT22;64115;50.170;8.242;2023-02-04T11:39:46;6.80;99.90
8261;DHT22;64115;50.170;8.242;2023-02-04T11:42:18;7.00;99.90
8261;DHT22;64115;50.170;8.242;2023-02-04T11:44:53;7.00;99.90
8261;DHT22;64115;50.170;8.242;2023-02-04T11:47:23;7.10;99.90
8261;DHT22;64115;50.170;8.242;2023-02-04T11:49:56;7.10;99.90
8261;DHT22;64115;50.170;8.242;2023-02-04T11:52:23;7.30;99.90
8261;DHT22;64115;50.170;8.242;2023-02-04T11:54:55;7.30;99.90
8261;DHT22;64115;50.170;8.242;2023-02-04T11:57:23;7.20;99.90
8261;DHT22;64115;50.170;8.242;2023-02-04T11:59:51;7.10;99.90
8261;DHT22;64115;50.170;8.242;2023-02-04T12:02:19;6.80;99.90
8261;DHT22;64115;50.170;8.242;2023-02-04T12:04:55;6.50;99.90
8261;DHT22;64115;50.170;8.242;2023-02-04T12:07:24;6.20;99.90
8261;DHT22;64115;50.170;8.242;2023-02-04T12:09:52;6.10;99.90
8261;DHT22;64115;50.170;8.242;2023-02-04T12:12:27;6.20;99.90
8261;DHT22;64115;50.170;8.242;2023-02-04T12:15:01;6.20;99.90
8261;DHT22;64115;50.170;8.242;2023-02-04T12:17:29;6.10;99.90
8261;DHT22;64115;50.170;8.242;2023-02-04T12:19:57;6.00;99.90
8261;DHT22;64115;50.170;8.242;2023-02-04T12:22:24;6.00;99.90
8261;DHT22;64115;50.170;8.242;2023-02-04T12:24:55;6.20;99.90
8261;DHT22;64115;50.170;8.242;2023-02-04T12:27:22;6.60;99.90
8261;DHT22;64115;50.170;8.242;2023-02-04T12:29:49;6.90;99.90
8261;DHT22;64115;50.170;8.242;2023-02-04T12:32:16;7.20;99.90
8261;DHT22;64115;50.170;8.242;2023-02-04T12:34:42;7.30;99.90
8261;DHT22;64115;50.170;8.242;2023-02-04T12:37:11;7.40;99.90
8261;DHT22;64115;50.170;8.242;2023-02-04T12:39:38;7.40;99.90
8261;DHT22;64115;50.170;8.242;2023-02-04T12:42:05;7.20;99.90
8261;DHT22;64115;50.170;8.242;2023-02-04T12:44:32;7.30;99.90
8261;DHT22;64115;50.170;8.242;2023-02-04T12:47:00;7.40;99.90
8261;DHT22;64115;50.170;8.242;2023-02-04T12:49:27;7.50;99.90
8261;DHT22;64115;50.170;8.242;2023-02-04T12:51:54;7.60;99.90
8261;DHT22;64115;50.170;8.242;2023-02-04T12:54:25;7.70;99.90
8261;DHT22;64115;50.170;8.242;2023-02-04T12:56:51;7.70;99.90
8261;DHT22;64115;50.170;8.242;2023-02-04T12:59:22;7.60;99.90
8261;DHT22;64115;50.170;8.242;2023-02-04T13:01:49;7.60;99.90
8261;DHT22;64115;50.170;8.242;2023-02-04T13:04:16;7.70;99.90
8261;DHT22;64115;50.170;8.242;2023-02-04T13:06:43;7.70;99.90
8261;DHT22;64115;50.170;8.242;2023-02-04T13:09:10;7.90;99.90
8261;DHT22;64115;50.170;8.242;2023-02-04T13:11:38;7.90;99.90
8261;DHT22;64115;50.170;8.242;2023-02-04T13:14:05;7.80;99.90
8261;DHT22;64115;50.170;8.242;2023-02-04T13:16:33;7.80;99.90
8261;DHT22;64115;50.170;8.242;2023-02-04T13:19:00;7.80;99.90
8261;DHT22;64115;50.170;8.242;2023-02-04T13:21:27;7.90;99.90
8261;DHT22;64115;50.170;8.242;2023-02-04T13:23:55;8.00;99.90
8261;DHT22;64115;50.170;8.242;2023-02-04T13:26:24;8.10;99.90
8261;DHT22;64115;50.170;8.242;2023-02-04T13:28:53;8.00;99.90
8261;DHT22;64115;50.170;8.242;2023-02-04T13:31:19;7.70;99.90
8261;DHT22;64115;50.170;8.242;2023-02-04T13:33:46;7.50;99.90
8261;DHT22;64115;50.170;8.242;2023-02-04T13:36:13;7.20;99.90
8261;DHT22;64115;50.170;8.242;2023-02-04T13:38:40;7.20;99.90
8261;DHT22;64115;50.170;8.242;2023-02-04T13:41:07;7.20;99.90
8261;DHT22;64115;50.170;8.242;2023-02-04T13:43:34;7.20;99.90
8261;DHT22;64115;50.170;8.242;2023-02-04T13:46:03;7.20;99.90
8261;DHT22;64115;50.170;8.242;2023-02-04T13:48:30;7.10;99.90
8261;DHT22;64115;50.170;8.242;2023-02-04T13:50:57;7.10;99.90
8261;DHT22;64115;50.170;8.242;2023-02-04T13:53:24;7.10;99.90
8261;DHT22;64115;50.170;8.242;2023-02-04T13:55:55;7.20;99.90
8261;DHT22;64115;50.170;8.242;2023-02-04T13:58:22;7.20;99.90
8261;DHT22;64115;50.170;8.242;2023-02-04T14:00:49;7.20;99.90
8261;DHT22;64115;50.170;8.242;2023-02-04T14:03:23;7.10;99.90
8261;DHT22;64115;50.170;8.242;2023-02-04T14:05:50;7.10;99.90
8261;DHT22;64115;50.170;8.242;2023-02-04T14:08:18;7.10;99.90
8261;DHT22;64115;50.170;8.242;2023-02-04T14:10:45;7.00;99.90
8261;DHT22;64115;50.170;8.242;2023-02-04T14:13:12;7.10;99.90
8261;DHT22;64115;50.170;8.242;2023-02-04T14:15:39;7.00;99.90
8261;DHT22;64115;50.170;8.242;2023-02-04T14:18:07;6.80;99.90
8261;DHT22;64115;50.170;8.242;2023-02-04T14:20:36;6.50;99.90
8261;DHT22;64115;50.170;8.242;2023-02-04T14:23:04;6.30;99.90
8261;DHT22;64115;50.170;8.242;2023-02-04T14:25:31;6.20;99.90
8261;DHT22;64115;50.170;8.242;2023-02-04T14:27:58;6.10;99.90
8261;DHT22;64115;50.170;8.242;2023-02-04T14:30:26;6.10;99.90
8261;DHT22;64115;50.170;8.242;2023-02-04T14:32:54;6.20;99.90
8261;DHT22;64115;50.170;8.242;2023-02-04T14:35:22;6.10;99.90
8261;DHT22;64115;50.170;8.242;2023-02-04T14:37:50;6.10;99.90
8261;DHT22;64115;50.170;8.242;2023-02-04T14:40:18;6.10;99.90
8261;DHT22;64115;50.170;8.242;2023-02-04T14:42:46;6.00;99.90
8261;DHT22;64115;50.170;8.242;2023-02-04T14:45:14;6.00;99.90
8261;DHT22;64115;50.170;8.242;2023-02-04T14:47:41;6.00;99.90
8261;DHT22;64115;50.170;8.242;2023-02-04T14:50:10;6.00;99.90
8261;DHT22;64115;50.170;8.242;2023-02-04T14:52:38;5.90;99.90
8261;DHT22;64115;50.170;8.242;2023-02-04T14:55:08;5.70;99.90
8261;DHT22;64115;50.170;8.242;2023-02-04T14:57:36;5.60;99.90
8261;DHT22;64115;50.170;8.242;2023-02-04T15:00:03;5.60;99.90
8261;DHT22;64115;50.170;8.242;2023-02-04T15:02:31;5.50;99.90
8261;DHT22;64115;50.170;8.242;2023-02-04T15:04:58;5.30;99.90
8261;DHT22;64115;50.170;8.242;2023-02-04T15:07:25;5.20;99.90
8261;DHT22;64115;50.170;8.242;2023-02-04T15:09:52;5.20;99.90
8261;DHT22;64115;50.170;8.242;2023-02-04T15:12:20;5.30;99.90
8261;DHT22;64115;50.170;8.242;2023-02-04T15:14:48;5.20;99.90
8261;DHT22;64115;50.170;8.242;2023-02-04T15:17:15;5.20;99.90
8261;DHT22;64115;50.170;8.242;2023-02-04T15:19:43;5.10;99.90
8261;DHT22;64115;50.170;8.242;2023-02-04T15:22:10;5.10;99.90
8261;DHT22;64115;50.170;8.242;2023-02-04T15:24:38;5.20;99.90
8261;DHT22;64115;50.170;8.242;2023-02-04T15:27:05;5.30;99.90
8261;DHT22;64115;50.170;8.242;2023-02-04T15:29:33;5.30;99.90
8261;DHT22;64115;50.170;8.242;2023-02-04T15:32:00;5.40;99.90
8261;DHT22;64115;50.170;8.242;2023-02-04T15:34:27;5.50;99.90
8261;DHT22;64115;50.170;8.242;2023-02-04T15:36:54;5.50;99.90
8261;DHT22;64115;50.170;8.242;2023-02-04T15:39:21;5.60;99.90
8261;DHT22;64115;50.170;8.242;2023-02-04T15:41:48;5.60;99.90
8261;DHT22;64115;50.170;8.242;2023-02-04T15:44:15;5.60;99.90
8261;DHT22;64115;50.170;8.242;2023-02-04T15:46:44;5.60;99.90
8261;DHT22;64115;50.170;8.242;2023-02-04T15:49:10;5.40;99.90
8261;DHT22;64115;50.170;8.242;2023-02-04T15:51:37;5.30;99.90
8261;DHT22;64115;50.170;8.242;2023-02-04T15:54:04;5.20;99.90
8261;DHT22;64115;50.170;8.242;2023-02-04T15:56:32;5.20;99.90
8261;DHT22;64115;50.170;8.242;2023-02-04T15:58:59;5.10;99.90
8261;DHT22;64115;50.170;8.242;2023-02-04T16:01:26;5.00;99.90
8261;DHT22;64115;50.170;8.242;2023-02-04T16:03:54;5.00;99.90
8261;DHT22;64115;50.170;8.242;2023-02-04T16:06:22;4.90;99.90
8261;DHT22;64115;50.170;8.242;2023-02-04T16:08:49;4.90;99.90